Ford Heights, Illinois
Current Conditions -  °F | °C
As of 6:35 AM on Thursday 23 Oct 2014 (Local Time) from KIGQ Reporting Station
Haze Haze  
Wind Chill: 34°   Ceiling: Unl
Heat Index: 34°   Visibility: 3mi
Dew Point: 34°   Wind: 0mph
Humidity: 98%   Direction: NA
Pressure: 30.23"   Gusts: NA
Location:  41.5054°N, 87.5907°W
Report Text: KIGQ 231135Z AUTO 00000KT 3SM BR CLR 01/01 A3023 RMK AO2 T00120009
Loading
Personal Weather Stations






























Interactive Weather Map New forecast layout! Learn more

10-Day Weather Forecast

Advertisements
Track Severe Weather on mobile